createdAt,value
2022-09-27T00:01:10.379Z,5.40
2022-09-27T00:03:37.512Z,7.65
2022-09-27T00:06:08.277Z,6.95
2022-09-27T00:08:36.457Z,6.63
2022-09-27T00:11:13.650Z,6.65
2022-09-27T00:13:40.733Z,8.00
2022-09-27T00:16:07.760Z,7.47
2022-09-27T00:18:35.121Z,6.75
2022-09-27T00:21:11.480Z,7.05
2022-09-27T00:23:38.595Z,6.10
2022-09-27T00:26:07.071Z,5.68
2022-09-27T00:28:34.753Z,6.72
2022-09-27T00:31:02.024Z,4.85
2022-09-27T00:33:29.090Z,7.97
2022-09-27T00:35:56.147Z,5.13
2022-09-27T00:38:23.081Z,5.97
2022-09-27T00:40:50.216Z,4.57
2022-09-27T00:43:21.694Z,4.20
2022-09-27T00:45:56.408Z,4.55
2022-09-27T00:48:27.849Z,4.55
2022-09-27T00:51:00.161Z,5.00
2022-09-27T00:53:35.558Z,5.10
2022-09-27T00:56:08.680Z,3.55
2022-09-27T00:58:40.081Z,4.50
2022-09-27T01:01:13.747Z,6.40
2022-09-27T01:04:23.961Z,3.78
2022-09-27T01:06:51.650Z,5.32
2022-09-27T01:09:18.804Z,3.28
2022-09-27T01:12:05.253Z,4.20
2022-09-27T01:14:49.442Z,3.90
2022-09-27T01:17:40.373Z,3.28
2022-09-27T01:20:43.185Z,2.63
2022-09-27T01:23:44.120Z,3.88
2022-09-27T01:26:29.677Z,7.93
2022-09-27T01:29:33.741Z,3.70
2022-09-27T01:32:07.728Z,3.88
2022-09-27T01:35:11.182Z,3.63
2022-09-27T01:37:54.024Z,4.28
2022-09-27T01:40:34.150Z,3.97
2022-09-27T01:43:20.036Z,4.93
2022-09-27T01:46:02.189Z,5.53
2022-09-27T01:48:35.541Z,5.22
2022-09-27T01:51:16.083Z,4.65
2022-09-27T01:53:54.470Z,4.68
2022-09-27T01:56:35.188Z,5.28
2022-09-27T01:59:12.443Z,4.93
2022-09-27T02:01:40.098Z,4.60
2022-09-27T02:04:11.854Z,4.18
2022-09-27T02:09:28.951Z,4.55
2022-09-27T02:12:03.103Z,5.78
2022-09-27T02:14:36.966Z,4.93
2022-09-27T02:17:46.372Z,4.90
2022-09-27T02:20:20.307Z,4.95
2022-09-27T02:23:09.113Z,6.70
2022-09-27T02:25:50.481Z,5.18
2022-09-27T02:28:40.452Z,6.43
2022-09-27T02:31:07.529Z,5.15
2022-09-27T02:34:21.439Z,7.07
2022-09-27T02:36:48.586Z,9.13
2022-09-27T02:39:16.681Z,6.20
2022-09-27T02:41:43.758Z,6.57
2022-09-27T02:44:12.454Z,10.52
2022-09-27T02:46:49.501Z,5.45
2022-09-27T02:49:20.450Z,7.25
2022-09-27T02:52:16.913Z,7.88
2022-09-27T02:55:12.859Z,6.25
2022-09-27T02:57:58.159Z,5.40
2022-09-27T03:00:34.215Z,8.43
2022-09-27T03:03:27.068Z,5.47
2022-09-27T03:06:06.627Z,5.90
2022-09-27T03:08:33.962Z,5.55
2022-09-27T03:11:00.923Z,5.45
2022-09-27T03:13:28.111Z,5.50
2022-09-27T03:15:59.394Z,5.63
2022-09-27T03:18:28.152Z,6.28
2022-09-27T03:20:55.028Z,4.70
2022-09-27T03:23:24.529Z,4.75
2022-09-27T03:25:51.890Z,4.65
2022-09-27T03:28:19.381Z,5.00
2022-09-27T03:30:46.940Z,5.57
2022-09-27T03:33:14.091Z,3.85
2022-09-27T03:35:42.937Z,5.75
2022-09-27T03:38:10.878Z,4.35
2022-09-27T03:40:38.053Z,5.05
2022-09-27T03:43:05.005Z,3.80
2022-09-27T03:45:31.870Z,4.00
2022-09-27T03:47:58.700Z,5.03
2022-09-27T03:50:25.862Z,5.78
2022-09-27T03:52:54.452Z,4.53
2022-09-27T03:55:21.618Z,4.30
2022-09-27T03:57:48.498Z,3.72
2022-09-27T04:00:15.800Z,4.75
2022-09-27T04:02:43.022Z,5.00
2022-09-27T04:05:10.865Z,4.22
2022-09-27T04:07:37.845Z,4.80
2022-09-27T04:10:06.109Z,4.25
2022-09-27T04:12:33.333Z,4.57
2022-09-27T04:15:00.585Z,3.38
2022-09-27T04:17:27.578Z,4.53
2022-09-27T04:19:54.456Z,3.60
2022-09-27T04:22:21.423Z,5.30
2022-09-27T04:24:48.314Z,4.55
2022-09-27T04:27:16.010Z,3.95
2022-09-27T04:29:45.640Z,3.70
2022-09-27T04:32:13.702Z,5.90
2022-09-27T04:34:59.995Z,5.70
2022-09-27T04:37:27.493Z,5.60
2022-09-27T04:39:54.399Z,5.80
2022-09-27T04:42:21.271Z,4.20
2022-09-27T04:44:48.153Z,4.80
2022-09-27T04:47:15.134Z,5.03
2022-09-27T04:49:42.103Z,3.78
2022-09-27T04:52:08.896Z,4.75
2022-09-27T04:54:35.910Z,3.92
2022-09-27T04:57:02.796Z,3.90
2022-09-27T04:59:30.947Z,4.40
2022-09-27T05:02:00.656Z,4.38
2022-09-27T05:04:27.743Z,4.28
2022-09-27T05:06:57.198Z,4.18
2022-09-27T05:09:24.318Z,3.92
2022-09-27T05:11:51.231Z,4.70
2022-09-27T05:14:18.283Z,5.80
2022-09-27T05:16:45.283Z,7.38
2022-09-27T05:19:12.091Z,5.30
2022-09-27T05:21:39.072Z,5.22
2022-09-27T05:24:06.103Z,4.55
2022-09-27T05:26:32.960Z,6.43
2022-09-27T05:29:00.107Z,5.95
2022-09-27T05:31:27.085Z,5.75
2022-09-27T05:33:54.151Z,6.15
2022-09-27T05:36:21.143Z,7.80
2022-09-27T05:38:48.441Z,7.43
2022-09-27T05:41:16.146Z,5.85
2022-09-27T05:43:43.166Z,6.82
2022-09-27T05:46:10.150Z,6.38
2022-09-27T05:48:38.413Z,6.50
2022-09-27T05:51:05.837Z,8.38
2022-09-27T05:53:32.802Z,8.00
2022-09-27T05:56:04.574Z,8.95
2022-09-27T05:58:31.622Z,9.05
2022-09-27T06:00:58.464Z,8.93
2022-09-27T06:03:25.335Z,14.90
2022-09-27T06:05:52.482Z,10.13
2022-09-27T06:08:22.062Z,9.43
2022-09-27T06:10:49.010Z,10.10
2022-09-27T06:13:16.797Z,10.63
2022-09-27T06:15:45.451Z,12.63
2022-09-27T06:18:16.279Z,12.15
2022-09-27T06:20:43.171Z,11.02
2022-09-27T06:23:16.504Z,9.85
2022-09-27T06:25:43.611Z,10.60
2022-09-27T06:28:10.941Z,9.63
2022-09-27T06:30:43.388Z,10.20
2022-09-27T06:33:14.117Z,11.48
2022-09-27T06:35:45.442Z,7.20
2022-09-27T06:38:17.970Z,10.27
2022-09-27T06:40:45.623Z,9.10
2022-09-27T06:43:16.122Z,11.57
2022-09-27T06:45:43.380Z,9.13
2022-09-27T06:48:13.048Z,7.00
2022-09-27T06:50:44.165Z,5.57
2022-09-27T06:53:14.109Z,8.93
2022-09-27T06:55:41.642Z,7.10
2022-09-27T06:58:29.908Z,6.90
2022-09-27T07:00:56.796Z,6.75
2022-09-27T07:03:30.720Z,4.78
2022-09-27T07:06:06.352Z,5.90
2022-09-27T07:08:34.066Z,3.97
2022-09-27T07:11:07.425Z,3.38
2022-09-27T07:13:40.210Z,3.92
2022-09-27T07:16:07.565Z,3.78
2022-09-27T07:18:34.458Z,3.03
2022-09-27T07:21:01.786Z,2.70
2022-09-27T07:23:29.086Z,4.00
2022-09-27T07:25:56.033Z,3.05
2022-09-27T07:28:23.111Z,3.22
2022-09-27T07:30:55.370Z,4.28
2022-09-27T07:33:22.486Z,2.88
2022-09-27T07:35:49.431Z,2.10
2022-09-27T07:38:16.530Z,2.35
2022-09-27T07:40:43.763Z,1.48
2022-09-27T07:43:10.925Z,1.35
2022-09-27T07:45:37.934Z,1.35
2022-09-27T07:48:10.456Z,1.88
2022-09-27T07:50:38.312Z,2.33
2022-09-27T07:53:05.550Z,1.70
2022-09-27T07:55:33.852Z,1.85
2022-09-27T07:58:09.725Z,1.67
2022-09-27T08:00:37.977Z,2.00
2022-09-27T08:03:14.189Z,2.97
2022-09-27T08:05:41.061Z,4.35
2022-09-27T08:08:08.106Z,3.22
2022-09-27T08:10:35.608Z,3.20
2022-09-27T08:13:04.188Z,4.55
2022-09-27T08:15:39.001Z,3.38
2022-09-27T08:18:06.882Z,2.63
2022-09-27T08:20:33.726Z,3.35
2022-09-27T08:23:00.547Z,3.38
2022-09-27T08:25:28.394Z,3.67
2022-09-27T08:27:58.374Z,2.83
2022-09-27T08:30:26.397Z,6.68
2022-09-27T08:32:57.602Z,3.75
2022-09-27T08:35:24.524Z,4.35
2022-09-27T08:37:59.881Z,2.72
2022-09-27T08:41:04.509Z,4.05
2022-09-27T08:44:17.348Z,3.92
2022-09-27T08:47:02.912Z,3.53
2022-09-27T08:49:53.780Z,3.13
2022-09-27T08:52:37.988Z,2.33
2022-09-27T08:55:17.515Z,3.08
2022-09-27T08:57:44.496Z,2.28
2022-09-27T09:00:13.396Z,3.53
2022-09-27T09:02:41.901Z,3.83
2022-09-27T09:05:15.445Z,3.05
2022-09-27T09:08:03.362Z,2.78
2022-09-27T09:11:21.259Z,3.95
2022-09-27T09:14:21.918Z,3.92
2022-09-27T09:17:25.814Z,2.75
2022-09-27T09:20:17.354Z,4.50
2022-09-27T09:25:34.475Z,2.65
2022-09-27T09:28:33.378Z,3.08
2022-09-27T09:31:51.820Z,3.17
2022-09-27T09:34:20.200Z,3.78
2022-09-27T09:36:59.486Z,3.10
2022-09-27T09:39:33.868Z,3.55
2022-09-27T09:42:29.389Z,2.67
2022-09-27T09:45:02.840Z,4.05
2022-09-27T09:47:57.954Z,3.20
2022-09-27T09:50:30.918Z,4.07
2022-09-27T09:53:19.509Z,2.87
2022-09-27T09:55:53.160Z,2.80
2022-09-27T09:58:37.176Z,4.55
2022-09-27T10:01:29.043Z,5.07
2022-09-27T10:06:25.239Z,4.97
2022-09-27T10:08:54.841Z,4.75
2022-09-27T10:11:33.661Z,3.90
2022-09-27T10:14:00.438Z,5.53
2022-09-27T10:16:29.141Z,3.13
2022-09-27T10:19:00.675Z,2.92
2022-09-27T10:24:17.719Z,3.45
2022-09-27T10:26:47.585Z,3.67
2022-09-27T10:29:20.366Z,4.43
2022-09-27T10:31:49.193Z,5.75
2022-09-27T10:34:27.581Z,6.22
2022-09-27T10:37:12.793Z,4.18
2022-09-27T10:39:43.313Z,3.65
2022-09-27T10:42:38.650Z,7.15
2022-09-27T10:45:24.262Z,3.35
2022-09-27T10:47:51.416Z,4.70
2022-09-27T10:50:50.919Z,2.83
2022-09-27T10:53:21.070Z,4.03
2022-09-27T10:55:50.798Z,7.32
2022-09-27T10:58:28.981Z,6.18
2022-09-27T11:01:05.267Z,6.15
2022-09-27T11:03:37.836Z,10.57
2022-09-27T11:06:30.359Z,6.25
2022-09-27T11:09:11.962Z,5.50
2022-09-27T11:11:38.906Z,7.68
2022-09-27T11:14:22.955Z,7.38
2022-09-27T11:17:25.211Z,5.60
2022-09-27T11:20:42.765Z,4.20
2022-09-27T11:23:43.143Z,3.13
2022-09-27T11:26:44.924Z,2.63
2022-09-27T11:29:25.930Z,4.18
2022-09-27T11:32:14.472Z,3.78
2022-09-27T11:35:38.767Z,4.10
2022-09-27T11:38:48.418Z,3.53
2022-09-27T11:41:34.114Z,2.20
2022-09-27T11:44:43.337Z,4.22
2022-09-27T11:47:54.427Z,2.38
2022-09-27T11:51:03.542Z,3.58
2022-09-27T11:53:42.187Z,3.53
2022-09-27T11:56:21.617Z,2.92
2022-09-27T11:59:29.613Z,2.42
2022-09-27T12:02:36.309Z,2.60
2022-09-27T12:05:31.399Z,2.95
2022-09-27T12:08:06.066Z,4.53
2022-09-27T12:10:33.440Z,4.63
2022-09-27T12:13:00.699Z,4.07
2022-09-27T12:15:33.821Z,2.78
2022-09-27T12:18:25.859Z,2.90
2022-09-27T12:20:53.777Z,3.58
2022-09-27T12:23:28.486Z,5.05
2022-09-27T12:26:00.861Z,2.55
2022-09-27T12:28:51.694Z,2.67
2022-09-27T12:31:30.270Z,2.50
2022-09-27T12:34:38.771Z,2.25
2022-09-27T12:37:08.851Z,6.28
2022-09-27T12:39:49.286Z,3.38
2022-09-27T12:42:37.305Z,4.30
2022-09-27T12:45:05.198Z,2.85
2022-09-27T12:47:53.179Z,7.50
2022-09-27T12:50:37.664Z,3.83
2022-09-27T12:53:19.997Z,3.88
2022-09-27T12:56:24.335Z,2.75
2022-09-27T12:59:28.472Z,2.28
2022-09-27T13:02:04.285Z,2.83
2022-09-27T13:05:13.930Z,2.23
2022-09-27T13:07:55.923Z,5.68
2022-09-27T13:11:06.884Z,4.57
2022-09-27T13:13:36.807Z,1.65
2022-09-27T13:16:04.468Z,2.33
2022-09-27T13:18:38.071Z,2.83
2022-09-27T13:21:09.500Z,2.75
2022-09-27T13:23:39.028Z,2.07
2022-09-27T13:26:33.282Z,1.70
2022-09-27T13:29:03.328Z,3.17
2022-09-27T13:31:55.017Z,3.85
2022-09-27T13:34:56.631Z,5.65
2022-09-27T13:37:29.325Z,2.75
2022-09-27T13:40:49.875Z,2.72
2022-09-27T13:44:05.054Z,2.42
2022-09-27T13:46:33.731Z,2.45
2022-09-27T13:49:24.755Z,3.45
2022-09-27T13:52:22.677Z,4.43
2022-09-27T13:54:58.404Z,3.58
2022-09-27T13:57:52.387Z,3.05
2022-09-27T14:00:31.579Z,2.60
2022-09-27T14:03:12.569Z,2.25
2022-09-27T14:05:53.017Z,3.28
2022-09-27T14:08:35.086Z,3.30
2022-09-27T14:11:04.512Z,3.33
2022-09-27T14:13:32.165Z,2.35
2022-09-27T14:16:04.434Z,2.72
2022-09-27T14:18:32.771Z,2.25
2022-09-27T14:21:28.894Z,3.13
2022-09-27T14:24:32.988Z,1.98
2022-09-27T14:27:17.422Z,2.40
2022-09-27T14:30:00.959Z,5.22
2022-09-27T14:32:36.939Z,4.40
2022-09-27T14:35:48.886Z,5.15
2022-09-27T14:38:37.145Z,3.30
2022-09-27T14:41:10.489Z,3.15
2022-09-27T14:43:43.990Z,4.35
2022-09-27T14:46:31.596Z,3.58
2022-09-27T14:49:19.146Z,4.07
2022-09-27T14:51:55.113Z,4.03
2022-09-27T14:54:26.686Z,3.47
2022-09-27T14:59:34.616Z,3.72
2022-09-27T15:02:16.149Z,5.80
2022-09-27T15:04:46.935Z,3.90
2022-09-27T15:07:17.049Z,5.40
2022-09-27T15:09:45.429Z,2.78
2022-09-27T15:12:25.475Z,3.95
2022-09-27T15:14:54.547Z,4.43
2022-09-27T15:17:22.682Z,4.03
2022-09-27T15:20:01.324Z,4.97
2022-09-27T15:22:43.440Z,4.13
2022-09-27T15:25:21.866Z,4.53
2022-09-27T15:27:51.980Z,3.83
2022-09-27T15:30:34.409Z,5.53
2022-09-27T15:33:01.895Z,2.95
2022-09-27T15:35:35.153Z,4.65
2022-09-27T15:38:32.599Z,3.20
2022-09-27T15:41:08.199Z,3.22
2022-09-27T15:43:50.034Z,3.85
2022-09-27T15:46:41.478Z,2.67
2022-09-27T15:49:18.016Z,3.50
2022-09-27T15:51:49.974Z,4.35
2022-09-27T15:54:31.374Z,3.65
2022-09-27T15:57:04.273Z,3.17
2022-09-27T15:59:34.941Z,3.42
2022-09-27T16:02:10.211Z,2.30
2022-09-27T16:04:36.982Z,4.43
2022-09-27T16:07:05.564Z,3.03
2022-09-27T16:09:32.323Z,5.03
2022-09-27T16:11:59.209Z,3.00
2022-09-27T16:14:26.071Z,4.05
2022-09-27T16:16:58.935Z,4.78
2022-09-27T16:19:25.927Z,4.00
2022-09-27T16:21:52.748Z,3.67
2022-09-27T16:24:19.591Z,6.28
2022-09-27T16:26:46.354Z,6.53
2022-09-27T16:29:15.141Z,4.82
2022-09-27T16:31:42.697Z,6.85
2022-09-27T16:34:10.417Z,4.70
2022-09-27T16:36:37.546Z,4.65
2022-09-27T16:39:06.168Z,3.45
2022-09-27T16:41:33.795Z,5.05
2022-09-27T16:44:12.813Z,6.70
2022-09-27T16:46:41.707Z,4.55
2022-09-27T16:49:28.073Z,5.72
2022-09-27T16:52:00.668Z,2.80
2022-09-27T16:54:29.398Z,4.35
2022-09-27T16:56:58.037Z,4.00
2022-09-27T16:59:25.266Z,3.28
2022-09-27T17:01:52.766Z,5.05
2022-09-27T17:04:19.579Z,3.42
2022-09-27T17:06:46.474Z,7.72
2022-09-27T17:09:13.264Z,4.60
2022-09-27T17:11:40.154Z,6.13
2022-09-27T17:14:07.021Z,7.30
2022-09-27T17:16:33.859Z,6.22
2022-09-27T17:19:00.811Z,6.97
2022-09-27T17:21:27.612Z,5.38
2022-09-27T17:23:54.455Z,5.35
2022-09-27T17:26:23.508Z,5.35
2022-09-27T17:28:50.762Z,3.78
2022-09-27T17:31:18.788Z,4.15
2022-09-27T17:33:49.025Z,4.65
2022-09-27T17:36:19.049Z,3.97
2022-09-27T17:38:47.174Z,6.65
2022-09-27T17:41:17.903Z,3.95
2022-09-27T17:43:51.516Z,3.97
2022-09-27T17:46:21.635Z,3.03
2022-09-27T17:49:07.787Z,4.88
2022-09-27T17:51:38.067Z,4.38
2022-09-27T17:54:08.828Z,3.65
2022-09-27T17:56:42.863Z,4.85
2022-09-27T17:59:11.668Z,2.67
2022-09-27T18:01:39.650Z,1.85
2022-09-27T18:04:09.840Z,1.90
2022-09-27T18:06:46.531Z,1.98
2022-09-27T18:09:16.298Z,1.58
2022-09-27T18:11:44.265Z,1.98
2022-09-27T18:14:11.355Z,3.15
2022-09-27T18:16:42.880Z,3.72
2022-09-27T18:21:42.141Z,2.67
2022-09-27T18:24:10.131Z,2.50
2022-09-27T18:26:38.564Z,3.58
2022-09-27T18:29:15.771Z,3.13
2022-09-27T18:31:47.440Z,3.35
2022-09-27T18:34:18.973Z,3.65
2022-09-27T18:36:46.579Z,2.50
2022-09-27T18:39:19.038Z,3.17
2022-09-27T18:41:49.030Z,2.85
2022-09-27T18:44:17.070Z,2.53
2022-09-27T18:46:44.217Z,2.67
2022-09-27T18:49:13.961Z,2.55
2022-09-27T18:51:44.986Z,4.00
2022-09-27T18:54:22.172Z,2.65
2022-09-27T18:56:50.540Z,1.73
2022-09-27T18:59:19.654Z,2.08
2022-09-27T19:01:46.972Z,2.50
2022-09-27T19:04:21.567Z,2.05
2022-09-27T19:06:51.371Z,2.85
2022-09-27T19:09:18.981Z,3.85
2022-09-27T19:11:46.120Z,2.60
2022-09-27T19:14:19.504Z,2.40
2022-09-27T19:16:47.891Z,3.80
2022-09-27T19:19:16.521Z,3.70
2022-09-27T19:21:43.942Z,2.25
2022-09-27T19:24:11.706Z,2.20
2022-09-27T19:26:38.820Z,2.70
2022-09-27T19:29:06.530Z,3.33
2022-09-27T19:31:35.525Z,2.65
2022-09-27T19:34:02.453Z,2.60
2022-09-27T19:36:29.631Z,4.15
2022-09-27T19:38:58.860Z,2.67
2022-09-27T19:41:26.582Z,3.10
2022-09-27T19:43:55.184Z,3.22
2022-09-27T19:46:23.254Z,3.25
2022-09-27T19:48:52.200Z,3.60
2022-09-27T19:51:21.993Z,3.20
2022-09-27T19:53:50.287Z,4.85
2022-09-27T19:56:17.955Z,4.68
2022-09-27T19:58:45.272Z,4.10
2022-09-27T20:01:21.175Z,3.90
2022-09-27T20:03:50.175Z,4.97
2022-09-27T20:06:19.073Z,4.22
2022-09-27T20:08:47.945Z,4.63
2022-09-27T20:11:23.129Z,3.63
2022-09-27T20:13:52.974Z,5.10
2022-09-27T20:16:23.507Z,4.65
2022-09-27T20:18:59.140Z,4.78
2022-09-27T20:21:29.345Z,4.00
2022-09-27T20:23:59.677Z,4.53
2022-09-27T20:26:29.191Z,3.15
2022-09-27T20:28:59.308Z,3.90
2022-09-27T20:31:37.148Z,4.28
2022-09-27T20:34:06.551Z,4.10
2022-09-27T20:36:36.817Z,4.97
2022-09-27T20:39:14.410Z,5.30
2022-09-27T20:41:44.050Z,3.90
2022-09-27T20:44:13.730Z,5.10
2022-09-27T20:46:42.478Z,3.70
2022-09-27T20:49:12.745Z,5.28
2022-09-27T20:51:41.686Z,4.88
2022-09-27T20:54:10.751Z,5.65
2022-09-27T20:56:46.295Z,4.22
2022-09-27T20:59:22.241Z,4.40
2022-09-27T21:01:51.276Z,4.95
2022-09-27T21:04:19.652Z,4.22
2022-09-27T21:06:46.698Z,5.38
2022-09-27T21:09:18.755Z,4.68
2022-09-27T21:11:51.930Z,3.92
2022-09-27T21:14:19.483Z,3.63
2022-09-27T21:16:46.331Z,4.13
2022-09-27T21:19:13.804Z,6.20
2022-09-27T21:21:43.612Z,4.35
2022-09-27T21:24:11.063Z,6.50
2022-09-27T21:26:37.942Z,5.15
2022-09-27T21:29:09.729Z,6.38
2022-09-27T21:31:37.942Z,7.50
2022-09-27T21:34:06.638Z,6.82
2022-09-27T21:36:36.760Z,5.25
2022-09-27T21:39:05.741Z,5.68
2022-09-27T21:41:32.603Z,5.25
2022-09-27T21:44:04.433Z,4.85
2022-09-27T21:46:31.548Z,4.53
2022-09-27T21:49:01.749Z,4.85
2022-09-27T21:51:40.238Z,3.55
2022-09-27T21:54:10.667Z,5.72
2022-09-27T21:56:39.783Z,4.00
2022-09-27T21:59:10.491Z,3.95
2022-09-27T22:01:37.440Z,3.60
2022-09-27T22:04:06.613Z,3.88
2022-09-27T22:06:36.583Z,4.68
2022-09-27T22:09:07.725Z,3.50
2022-09-27T22:11:38.917Z,4.88
2022-09-27T22:14:09.481Z,4.07
2022-09-27T22:16:36.718Z,6.67
2022-09-27T22:19:04.795Z,4.57
2022-09-27T22:21:37.836Z,4.55
2022-09-27T22:24:16.891Z,4.82
2022-09-27T22:26:49.332Z,6.45
2022-09-27T22:29:16.387Z,5.65
2022-09-27T22:31:43.581Z,6.18
2022-09-27T22:34:18.639Z,4.90
2022-09-27T22:36:46.317Z,4.13
2022-09-27T22:39:13.238Z,4.38
2022-09-27T22:41:40.166Z,3.97
2022-09-27T22:44:08.347Z,5.57
2022-09-27T22:46:35.659Z,4.03
2022-09-27T22:49:02.607Z,4.40
2022-09-27T22:51:29.712Z,5.50
2022-09-27T22:53:56.571Z,6.38
2022-09-27T22:56:23.587Z,4.85
2022-09-27T22:58:50.876Z,6.15
2022-09-27T23:01:23.714Z,4.00
2022-09-27T23:03:52.873Z,8.32
2022-09-27T23:06:21.717Z,5.07
2022-09-27T23:08:48.946Z,4.55
2022-09-27T23:11:21.493Z,3.70
2022-09-27T23:13:50.212Z,5.07
2022-09-27T23:16:20.820Z,3.28
2022-09-27T23:18:47.808Z,3.60
2022-09-27T23:21:16.021Z,4.07
2022-09-27T23:23:44.959Z,6.28
2022-09-27T23:26:16.344Z,5.63
2022-09-27T23:28:43.575Z,5.38
2022-09-27T23:31:16.741Z,5.18
2022-09-27T23:33:47.399Z,5.50
2022-09-27T23:36:17.481Z,5.38
2022-09-27T23:38:45.794Z,8.48
2022-09-27T23:41:15.131Z,6.75
2022-09-27T23:43:42.139Z,6.00
2022-09-27T23:46:09.829Z,5.65
2022-09-27T23:48:37.077Z,7.65
2022-09-27T23:51:06.582Z,6.70
2022-09-27T23:53:33.423Z,6.55
2022-09-27T23:56:05.455Z,4.65
2022-09-27T23:58:37.698Z,4.88
